createdAt,value
2024-02-23T00:00:47.283Z,98243.38
2024-02-23T00:03:13.729Z,98237.97
2024-02-23T00:05:40.173Z,98242.31
2024-02-23T00:08:07.832Z,98239.34
2024-02-23T00:10:34.454Z,98246.19
2024-02-23T00:13:02.108Z,98249.75
2024-02-23T00:15:28.643Z,98258.97
2024-02-23T00:17:55.254Z,98251.63
2024-02-23T00:20:21.824Z,98250.00
2024-02-23T00:22:48.287Z,98240.78
2024-02-23T00:25:15.293Z,98246.78
2024-02-23T00:27:43.119Z,98237.81
2024-02-23T00:30:09.716Z,98246.78
2024-02-23T00:32:36.196Z,98248.78
2024-02-23T00:35:02.704Z,98250.69
2024-02-23T00:37:29.233Z,98252.38
2024-02-23T00:39:55.650Z,98241.25
2024-02-23T00:42:22.141Z,98234.16
2024-02-23T00:44:48.565Z,98243.63
2024-02-23T00:47:15.049Z,98231.44
2024-02-23T00:49:41.450Z,98237.94
2024-02-23T00:52:07.884Z,98234.38
2024-02-23T00:54:34.326Z,98238.19
2024-02-23T00:57:00.820Z,98238.19
2024-02-23T00:59:27.456Z,98231.09
2024-02-23T01:01:54.185Z,98231.66
2024-02-23T01:04:20.701Z,98227.91
2024-02-23T01:06:47.156Z,98240.44
2024-02-23T01:09:14.314Z,98227.06
2024-02-23T01:11:40.907Z,98230.28
2024-02-23T01:14:08.121Z,98224.84
2024-02-23T01:16:34.663Z,98228.94
2024-02-23T01:19:01.079Z,98248.78
2024-02-23T01:21:27.502Z,98247.97
2024-02-23T01:23:53.930Z,98241.97
2024-02-23T01:26:20.403Z,98257.19
2024-02-23T01:28:46.969Z,98268.66
2024-02-23T01:31:14.374Z,98254.84
2024-02-23T01:33:41.004Z,98258.13
2024-02-23T01:36:07.841Z,98260.00
2024-02-23T01:38:34.598Z,98271.97
2024-02-23T01:41:01.233Z,98279.28
2024-02-23T01:43:28.146Z,98283.91
2024-02-23T01:45:54.989Z,98295.59
2024-02-23T01:48:21.984Z,98299.13
2024-02-23T01:50:48.732Z,98301.59
2024-02-23T01:53:15.254Z,98309.53
2024-02-23T01:55:42.211Z,98303.75
2024-02-23T01:58:09.066Z,98321.59
2024-02-23T02:00:36.145Z,98328.91
2024-02-23T02:03:02.662Z,98327.38
2024-02-23T02:05:29.773Z,98337.44
2024-02-23T02:08:00.084Z,98330.09
2024-02-23T02:10:27.886Z,98354.31
2024-02-23T02:12:54.298Z,98357.63
2024-02-23T02:15:23.020Z,98367.41
2024-02-23T02:17:49.759Z,98376.41
2024-02-23T02:20:19.861Z,98376.41
2024-02-23T02:22:46.451Z,98380.75
2024-02-23T02:25:15.044Z,98386.19
2024-02-23T02:27:41.498Z,98406.91
2024-02-23T02:30:08.332Z,98425.91
2024-02-23T02:32:37.321Z,98435.47
2024-02-23T02:35:04.744Z,98437.38
2024-02-23T02:37:31.225Z,98443.63
2024-02-23T02:39:57.716Z,98442.78
2024-02-23T02:42:24.118Z,98447.66
2024-02-23T02:44:50.617Z,98463.09
2024-02-23T02:47:17.038Z,98456.84
2024-02-23T02:49:43.509Z,98465.63
2024-02-23T02:52:10.309Z,98476.47
2024-02-23T02:54:36.738Z,98485.47
2024-02-23T02:57:03.357Z,98496.34
2024-02-23T02:59:29.880Z,98514.28
2024-02-23T03:01:58.334Z,98516.78
2024-02-23T03:04:24.863Z,98516.78
2024-02-23T03:06:51.386Z,98514.66
2024-02-23T03:09:17.803Z,98529.88
2024-02-23T03:11:44.300Z,98538.88
2024-02-23T03:14:11.297Z,98529.06
2024-02-23T03:16:38.763Z,98526.81
2024-02-23T03:19:05.637Z,98545.84
2024-02-23T03:21:32.175Z,98557.78
2024-02-23T03:23:58.661Z,98543.13
2024-02-23T03:26:25.247Z,98588.50
2024-02-23T03:28:51.729Z,98582.84
2024-02-23T03:31:18.425Z,98601.63
2024-02-23T03:33:44.945Z,98598.66
2024-02-23T03:36:11.450Z,98608.13
2024-02-23T03:38:37.977Z,98619.81
2024-02-23T03:41:04.660Z,98624.44
2024-02-23T03:43:34.208Z,98635.53
2024-02-23T03:46:01.048Z,98648.28
2024-02-23T03:48:27.524Z,98634.50
2024-02-23T03:50:55.417Z,98648.91
2024-02-23T03:53:21.950Z,98662.50
2024-02-23T03:55:48.506Z,98668.75
2024-02-23T03:58:14.990Z,98666.84
2024-02-23T04:00:41.463Z,98667.94
2024-02-23T04:03:07.868Z,98666.03
2024-02-23T04:05:34.357Z,98673.38
2024-02-23T04:08:00.957Z,98676.09
2024-02-23T04:10:27.479Z,98681.53
2024-02-23T04:12:53.897Z,98691.78
2024-02-23T04:15:20.430Z,98690.38
2024-02-23T04:17:47.345Z,98704.78
2024-02-23T04:20:14.732Z,98713.63
2024-02-23T04:22:41.484Z,98705.47
2024-02-23T04:25:08.139Z,98723.44
2024-02-23T04:27:34.610Z,98718.44
2024-02-23T04:30:01.050Z,98736.41
2024-02-23T04:32:27.604Z,98736.66
2024-02-23T04:34:54.135Z,98746.44
2024-02-23T04:37:20.643Z,98749.16
2024-02-23T04:39:47.111Z,98748.13
2024-02-23T04:42:13.529Z,98757.94
2024-02-23T04:44:42.030Z,98766.91
2024-02-23T04:47:08.593Z,98759.34
2024-02-23T04:49:35.120Z,98787.38
2024-02-23T04:52:01.611Z,98793.03
2024-02-23T04:54:28.117Z,98797.63
2024-02-23T04:56:54.578Z,98813.94
2024-02-23T04:59:21.049Z,98809.78
2024-02-23T05:01:48.251Z,98817.13
2024-02-23T05:04:14.665Z,98815.22
2024-02-23T05:06:41.230Z,98830.25
2024-02-23T05:09:10.447Z,98826.94
2024-02-23T05:11:37.119Z,98828.59
2024-02-23T05:14:03.640Z,98843.03
2024-02-23T05:16:30.155Z,98850.09
2024-02-23T05:18:56.557Z,98857.19
2024-02-23T05:21:22.990Z,98870.19
2024-02-23T05:23:49.377Z,98879.41
2024-02-23T05:26:15.940Z,98902.81
2024-02-23T05:28:42.651Z,98901.16
2024-02-23T05:31:10.490Z,98893.00
2024-02-23T05:33:37.664Z,98899.47
2024-02-23T05:36:04.557Z,98902.44
2024-02-23T05:38:31.678Z,98912.03
2024-02-23T05:40:58.234Z,98927.50
2024-02-23T05:43:24.893Z,98916.16
2024-02-23T05:45:51.397Z,98930.81
2024-02-23T05:48:20.074Z,98938.16
2024-02-23T05:50:46.691Z,98954.22
2024-02-23T05:53:13.140Z,98965.91
2024-02-23T05:55:39.593Z,98991.25
2024-02-23T05:58:06.527Z,98989.34
2024-02-23T06:00:33.005Z,99008.56
2024-02-23T06:02:59.455Z,99006.47
2024-02-23T06:05:28.828Z,99016.28
2024-02-23T06:07:55.970Z,99022.56
2024-02-23T06:10:22.537Z,99032.84
2024-02-23T06:12:48.986Z,99020.91
2024-02-23T06:15:15.809Z,99029.06
2024-02-23T06:17:42.300Z,99045.59
2024-02-23T06:20:09.262Z,99060.69
2024-02-23T06:22:35.693Z,99072.59
2024-02-23T06:25:03.598Z,99079.09
2024-02-23T06:27:31.152Z,99094.34
2024-02-23T06:29:57.663Z,99096.03
2024-02-23T06:32:24.261Z,99109.59
2024-02-23T06:34:50.816Z,99122.13
2024-02-23T06:37:17.407Z,99125.06
2024-02-23T06:39:45.250Z,99140.78
2024-02-23T06:42:11.701Z,99129.66
2024-02-23T06:44:38.163Z,99156.66
2024-02-23T06:47:04.812Z,99153.09
2024-02-23T06:49:31.422Z,99152.25
2024-02-23T06:51:57.946Z,99158.31
2024-02-23T06:54:24.506Z,99177.09
2024-02-23T06:56:50.918Z,99177.09
2024-02-23T06:59:17.473Z,99179.22
2024-02-23T07:01:50.923Z,99189.25
2024-02-23T07:04:17.576Z,99198.84
2024-02-23T07:06:44.399Z,99194.25
2024-02-23T07:09:12.392Z,99195.09
2024-02-23T07:11:39.990Z,99198.41
2024-02-23T07:14:06.592Z,99212.84
2024-02-23T07:16:33.259Z,99226.66
2024-02-23T07:19:00.454Z,99212.00
2024-02-23T07:21:27.016Z,99209.53
2024-02-23T07:23:53.593Z,99220.38
2024-02-23T07:26:21.604Z,99228.31
2024-02-23T07:28:48.034Z,99248.19
2024-02-23T07:31:14.454Z,99252.78
2024-02-23T07:33:41.125Z,99248.19
2024-02-23T07:36:09.869Z,99246.28
2024-02-23T07:38:36.323Z,99239.81
2024-02-23T07:41:02.803Z,99247.75
2024-02-23T07:43:30.337Z,99264.06
2024-02-23T07:45:56.850Z,99260.06
2024-02-23T07:48:23.360Z,99257.31
2024-02-23T07:50:49.856Z,99255.81
2024-02-23T07:53:16.310Z,99262.06
2024-02-23T07:55:42.726Z,99267.06
2024-02-23T07:58:09.158Z,99269.75
2024-02-23T08:00:39.047Z,99272.44
2024-02-23T08:03:05.870Z,99277.88
2024-02-23T08:05:32.349Z,99279.94
2024-02-23T08:07:58.899Z,99291.41
2024-02-23T08:10:26.991Z,99290.38
2024-02-23T08:12:53.540Z,99289.91
2024-02-23T08:15:20.038Z,99301.63
2024-02-23T08:17:46.507Z,99308.31
2024-02-23T08:20:13.192Z,99314.13
2024-02-23T08:22:39.702Z,99303.66
2024-02-23T08:25:06.298Z,99310.09
2024-02-23T08:27:32.742Z,99327.47
2024-02-23T08:29:59.168Z,99329.53
2024-02-23T08:32:25.779Z,99321.78
2024-02-23T08:34:54.093Z,99333.66
2024-02-23T08:37:20.661Z,99329.44
2024-02-23T08:39:47.087Z,99338.19
2024-02-23T08:42:13.758Z,99343.22
2024-02-23T08:44:40.467Z,99354.72
2024-02-23T08:47:07.008Z,99356.16
2024-02-23T08:49:33.510Z,99357.63
2024-02-23T08:51:59.948Z,99365.78
2024-02-23T08:54:26.387Z,99365.16
2024-02-23T08:56:52.856Z,99364.94
2024-02-23T08:59:19.372Z,99354.91
2024-02-23T09:01:47.864Z,99355.28
2024-02-23T09:04:14.491Z,99363.22
2024-02-23T09:06:41.200Z,99366.56
2024-02-23T09:09:07.826Z,99376.16
2024-02-23T09:11:34.497Z,99387.28
2024-02-23T09:14:01.024Z,99401.50
2024-02-23T09:16:27.652Z,99396.94
2024-02-23T09:18:54.136Z,99390.63
2024-02-23T09:21:20.613Z,99401.06
2024-02-23T09:23:47.228Z,99398.59
2024-02-23T09:26:13.740Z,99407.59
2024-02-23T09:28:43.036Z,99400.09
2024-02-23T09:31:09.474Z,99413.53
2024-02-23T09:33:36.048Z,99406.22
2024-02-23T09:36:02.564Z,99416.94
2024-02-23T09:38:29.299Z,99422.81
2024-02-23T09:40:55.906Z,99423.47
2024-02-23T09:43:23.209Z,99425.19
2024-02-23T09:45:52.163Z,99425.63
2024-02-23T09:48:20.009Z,99435.50
2024-02-23T09:50:48.209Z,99429.63
2024-02-23T09:53:15.260Z,99439.06
2024-02-23T09:55:43.728Z,99435.72
2024-02-23T09:58:11.872Z,99441.59
2024-02-23T10:00:39.370Z,99452.72
2024-02-23T10:03:06.789Z,99453.13
2024-02-23T10:05:36.772Z,99466.94
2024-02-23T10:08:05.646Z,99477.22
2024-02-23T10:10:33.904Z,99486.44
2024-02-23T10:13:01.021Z,99481.63
2024-02-23T10:15:30.006Z,99480.41
2024-02-23T10:17:56.764Z,99483.13
2024-02-23T10:20:23.452Z,99480.00
2024-02-23T10:22:50.375Z,99474.13
2024-02-23T10:25:16.869Z,99468.06
2024-02-23T10:27:46.067Z,99452.38
2024-02-23T10:30:14.179Z,99470.13
2024-02-23T10:32:41.716Z,99481.22
2024-02-23T10:35:14.324Z,99481.25
2024-02-23T10:37:43.415Z,99470.00
2024-02-23T10:40:13.450Z,99475.25
2024-02-23T10:42:41.955Z,99473.34
2024-02-23T10:45:09.507Z,99463.75
2024-02-23T10:47:36.743Z,99469.84
2024-02-23T10:50:04.020Z,99463.75
2024-02-23T10:52:31.461Z,99455.41
2024-02-23T10:54:58.733Z,99467.94
2024-02-23T10:57:25.770Z,99463.34
2024-02-23T10:59:52.407Z,99477.56
2024-02-23T11:02:21.480Z,99473.19
2024-02-23T11:04:51.936Z,99477.16
2024-02-23T11:07:20.329Z,99480.09
2024-02-23T11:09:59.451Z,99473.38
2024-02-23T11:12:26.601Z,99477.59
2024-02-23T11:14:57.341Z,99484.06
2024-02-23T11:17:23.990Z,99482.59
2024-02-23T11:19:51.843Z,99476.53
2024-02-23T11:22:37.203Z,99475.06
2024-02-23T11:25:12.004Z,99482.38
2024-02-23T11:27:41.587Z,99495.34
2024-02-23T11:30:12.867Z,99486.53
2024-02-23T11:32:44.422Z,99481.50
2024-02-23T11:35:14.886Z,99489.44
2024-02-23T11:38:05.343Z,99492.38
2024-02-23T11:40:32.083Z,99498.66
2024-02-23T11:42:59.078Z,99499.50
2024-02-23T11:45:26.209Z,99496.34
2024-02-23T11:47:53.208Z,99495.53
2024-02-23T11:50:21.997Z,99508.66
2024-02-23T11:52:49.080Z,99500.09
2024-02-23T11:55:23.723Z,99495.06
2024-02-23T11:57:56.586Z,99502.81
2024-02-23T12:00:28.184Z,99506.13
2024-02-23T12:02:54.602Z,99504.25
2024-02-23T12:05:21.809Z,99509.69
2024-02-23T12:07:48.464Z,99517.66
2024-02-23T12:10:15.123Z,99519.50
2024-02-23T12:12:54.778Z,99524.75
2024-02-23T12:15:21.234Z,99523.94
2024-02-23T12:17:48.786Z,99518.47
2024-02-23T12:20:15.758Z,99523.69
2024-02-23T12:22:42.506Z,99527.47
2024-02-23T12:25:08.974Z,99525.81
2024-02-23T12:27:35.601Z,99525.81
2024-02-23T12:30:02.124Z,99525.81
2024-02-23T12:32:28.698Z,99535.84
2024-02-23T12:34:55.337Z,99531.44
2024-02-23T12:37:23.735Z,99529.56
2024-02-23T12:39:50.177Z,99528.31
2024-02-23T12:42:16.775Z,99532.09
2024-02-23T12:44:44.531Z,99535.22
2024-02-23T12:47:10.971Z,99543.63
2024-02-23T12:49:37.585Z,99532.72
2024-02-23T12:52:04.357Z,99549.06
2024-02-23T12:54:30.792Z,99541.94
2024-02-23T12:56:58.159Z,99551.78
2024-02-23T12:59:24.642Z,99546.34
2024-02-23T13:01:53.259Z,99560.16
2024-02-23T13:04:20.130Z,99555.75
2024-02-23T13:06:46.714Z,99559.75
2024-02-23T13:09:13.864Z,99557.66
2024-02-23T13:11:40.875Z,99567.69
2024-02-23T13:14:07.539Z,99558.06
2024-02-23T13:16:33.964Z,99573.34
2024-02-23T13:19:00.567Z,99568.94
2024-02-23T13:21:27.005Z,99562.69
2024-02-23T13:23:53.451Z,99581.72
2024-02-23T13:26:20.273Z,99575.44
2024-02-23T13:28:47.021Z,99570.63
2024-02-23T13:31:14.731Z,99574.59
2024-02-23T13:33:41.670Z,99559.53
2024-02-23T13:36:08.383Z,99578.34
2024-02-23T13:38:39.428Z,99572.31
2024-02-23T13:41:07.032Z,99568.94
2024-02-23T13:43:34.803Z,99576.25
2024-02-23T13:46:01.571Z,99567.28
2024-02-23T13:48:28.321Z,99576.06
2024-02-23T13:50:55.017Z,99566.44
2024-02-23T13:53:21.762Z,99571.66
2024-02-23T13:55:48.975Z,99572.50
2024-02-23T13:58:15.553Z,99569.16
2024-02-23T14:00:42.190Z,99571.25
2024-02-23T14:03:09.438Z,99567.06
2024-02-23T14:05:36.412Z,99567.06
2024-02-23T14:08:08.067Z,99568.75
2024-02-23T14:10:35.613Z,99573.97
2024-02-23T14:13:02.113Z,99572.94
2024-02-23T14:15:28.679Z,99582.75
2024-02-23T14:17:55.253Z,99579.19
2024-02-23T14:20:21.775Z,99578.38
2024-02-23T14:22:48.459Z,99579.63
2024-02-23T14:25:14.964Z,99578.78
2024-02-23T14:27:41.410Z,99582.13
2024-02-23T14:30:09.432Z,99581.31
2024-02-23T14:32:36.290Z,99576.91
2024-02-23T14:35:04.918Z,99593.44
2024-02-23T14:37:31.527Z,99595.50
2024-02-23T14:39:57.946Z,99597.63
2024-02-23T14:42:24.657Z,99592.78
2024-02-23T14:44:51.376Z,99598.66
2024-02-23T14:47:20.370Z,99599.50
2024-02-23T14:49:48.608Z,99608.69
2024-02-23T14:52:16.124Z,99608.47
2024-02-23T14:54:42.678Z,99607.22
2024-02-23T14:57:09.358Z,99611.59
2024-02-23T14:59:42.664Z,99610.78
2024-02-23T15:02:10.513Z,99611.22
2024-02-23T15:04:37.029Z,99618.31
2024-02-23T15:07:03.580Z,99619.38
2024-02-23T15:09:30.020Z,99622.50
2024-02-23T15:11:56.590Z,99631.84
2024-02-23T15:14:23.350Z,99629.34
2024-02-23T15:16:50.094Z,99641.06
2024-02-23T15:19:16.668Z,99636.22
2024-02-23T15:21:43.694Z,99646.50
2024-02-23T15:24:10.637Z,99637.50
2024-02-23T15:26:37.236Z,99637.50
2024-02-23T15:29:04.636Z,99644.19
2024-02-23T15:31:31.375Z,99649.59
2024-02-23T15:33:59.330Z,99642.72
2024-02-23T15:36:25.951Z,99663.63
2024-02-23T15:38:54.242Z,99667.59
2024-02-23T15:41:20.731Z,99673.25
2024-02-23T15:43:47.216Z,99669.66
2024-02-23T15:46:13.640Z,99676.97
2024-02-23T15:48:40.293Z,99678.47
2024-02-23T15:51:15.328Z,99673.25
2024-02-23T15:53:50.546Z,99676.13
2024-02-23T15:56:17.063Z,99680.75
2024-02-23T15:58:43.512Z,99682.63
2024-02-23T16:01:10.040Z,99676.53
2024-02-23T16:03:36.504Z,99683.25
2024-02-23T16:06:03.254Z,99673.22
2024-02-23T16:08:39.961Z,99671.53
2024-02-23T16:11:06.689Z,99681.56
2024-02-23T16:13:33.269Z,99676.53
2024-02-23T16:16:00.150Z,99669.44
2024-02-23T16:18:26.740Z,99673.38
2024-02-23T16:20:53.956Z,99672.34
2024-02-23T16:23:20.432Z,99671.50
2024-02-23T16:25:46.871Z,99674.03
2024-02-23T16:28:13.320Z,99670.47
2024-02-23T16:30:40.279Z,99666.91
2024-02-23T16:33:07.337Z,99662.53
2024-02-23T16:35:34.020Z,99660.63
2024-02-23T16:38:01.119Z,99658.75
2024-02-23T16:40:30.335Z,99647.47
2024-02-23T16:42:57.469Z,99648.31
2024-02-23T16:45:28.354Z,99652.28
2024-02-23T16:47:55.904Z,99654.16
2024-02-23T16:50:22.564Z,99660.44
2024-02-23T16:52:49.325Z,99656.66
2024-02-23T16:55:16.846Z,99666.06
2024-02-23T16:57:43.295Z,99673.34
2024-02-23T17:00:10.058Z,99671.69
2024-02-23T17:02:36.623Z,99671.06
2024-02-23T17:05:03.829Z,99689.88
2024-02-23T17:07:30.939Z,99705.38
2024-02-23T17:09:58.394Z,99711.00
2024-02-23T17:12:25.436Z,99709.53
2024-02-23T17:14:51.938Z,99720.81
2024-02-23T17:17:21.683Z,99731.00
2024-02-23T17:19:48.335Z,99732.91
2024-02-23T17:22:14.962Z,99748.34
2024-02-23T17:24:41.462Z,99749.41
2024-02-23T17:27:08.001Z,99752.13
2024-02-23T17:29:35.138Z,99749.59
2024-02-23T17:32:02.066Z,99761.50
2024-02-23T17:34:28.618Z,99768.19
2024-02-23T17:36:55.106Z,99758.16
2024-02-23T17:39:21.998Z,99750.00
2024-02-23T17:41:48.632Z,99741.88
2024-02-23T17:44:18.825Z,99738.09
2024-02-23T17:46:48.793Z,99739.16
2024-02-23T17:49:16.328Z,99733.91
2024-02-23T17:51:43.437Z,99733.06
2024-02-23T17:54:10.006Z,99725.13
2024-02-23T17:56:36.591Z,99727.84
2024-02-23T17:59:04.017Z,99724.47
2024-02-23T18:01:30.766Z,99728.91
2024-02-23T18:03:57.316Z,99719.03
2024-02-23T18:06:24.947Z,99720.94
2024-02-23T18:08:51.649Z,99711.31
2024-02-23T18:11:18.285Z,99714.22
2024-02-23T18:13:45.484Z,99718.63
2024-02-23T18:16:14.580Z,99726.78
2024-02-23T18:18:41.156Z,99719.66
2024-02-23T18:21:07.720Z,99712.56
2024-02-23T18:23:34.979Z,99711.94
2024-02-23T18:26:01.509Z,99725.28
2024-02-23T18:28:28.050Z,99737.22
2024-02-23T18:30:54.494Z,99735.31
2024-02-23T18:33:20.976Z,99726.34
2024-02-23T18:35:47.576Z,99731.34
2024-02-23T18:38:14.034Z,99727.78
2024-02-23T18:40:41.099Z,99726.09
2024-02-23T18:43:07.566Z,99729.84
2024-02-23T18:45:35.705Z,99740.72
2024-02-23T18:48:02.227Z,99748.22
2024-02-23T18:50:28.809Z,99742.78
2024-02-23T18:52:55.410Z,99732.56
2024-02-23T18:55:22.744Z,99732.56
2024-02-23T18:57:50.455Z,99736.31
2024-02-23T19:00:17.076Z,99731.94
2024-02-23T19:02:46.118Z,99731.28
2024-02-23T19:05:13.867Z,99737.75
2024-02-23T19:07:40.423Z,99734.22
2024-02-23T19:10:07.865Z,99735.03
2024-02-23T19:12:35.907Z,99733.38
2024-02-23T19:15:02.458Z,99735.03
2024-02-23T19:17:29.144Z,99726.28
2024-02-23T19:19:55.738Z,99733.38
2024-02-23T19:22:23.877Z,99739.63
2024-02-23T19:24:50.599Z,99735.25
2024-02-23T19:27:17.055Z,99726.47
2024-02-23T19:29:43.562Z,99730.84
2024-02-23T19:32:10.086Z,99725.63
2024-02-23T19:34:36.601Z,99724.78
2024-02-23T19:37:03.130Z,99726.47
2024-02-23T19:39:30.771Z,99719.34
2024-02-23T19:41:57.550Z,99720.19
2024-02-23T19:44:23.996Z,99720.41
2024-02-23T19:46:50.444Z,99722.47
2024-02-23T19:49:18.117Z,99728.94
2024-02-23T19:51:44.635Z,99724.13
2024-02-23T19:54:11.063Z,99719.97
2024-02-23T19:56:37.696Z,99721.84
2024-02-23T19:59:04.871Z,99724.56
2024-02-23T20:01:31.424Z,99728.09
2024-02-23T20:03:57.910Z,99737.28
2024-02-23T20:06:24.421Z,99742.72
2024-02-23T20:08:50.932Z,99741.84
2024-02-23T20:11:17.621Z,99741.84
2024-02-23T20:13:44.118Z,99742.72
2024-02-23T20:16:10.826Z,99741.03
2024-02-23T20:18:37.335Z,99748.16
2024-02-23T20:21:04.001Z,99747.28
2024-02-23T20:23:30.562Z,99751.88
2024-02-23T20:25:57.061Z,99750.00
2024-02-23T20:28:23.498Z,99761.06
2024-02-23T20:30:51.041Z,99767.53
2024-02-23T20:33:17.756Z,99775.03
2024-02-23T20:35:44.357Z,99784.00
2024-02-23T20:38:10.863Z,99793.19
2024-02-23T20:40:37.322Z,99793.41
2024-02-23T20:43:03.817Z,99795.28
2024-02-23T20:45:30.206Z,99801.53
2024-02-23T20:47:58.671Z,99805.09
2024-02-23T20:50:25.344Z,99808.44
2024-02-23T20:52:51.823Z,99815.16
2024-02-23T20:55:18.438Z,99802.63
2024-02-23T20:57:45.023Z,99799.06
2024-02-23T21:00:11.891Z,99801.56
2024-02-23T21:02:39.860Z,99797.84
2024-02-23T21:05:06.870Z,99799.53
2024-02-23T21:07:33.446Z,99796.81
2024-02-23T21:10:00.398Z,99802.44
2024-02-23T21:12:26.833Z,99809.72
2024-02-23T21:14:53.439Z,99788.00
2024-02-23T21:17:20.185Z,99794.47
2024-02-23T21:19:46.593Z,99791.75
2024-02-23T21:22:13.022Z,99786.53
2024-02-23T21:24:43.577Z,99783.00
2024-02-23T21:27:11.447Z,99775.69
2024-02-23T21:29:38.052Z,99765.00
2024-02-23T21:32:04.787Z,99754.16
2024-02-23T21:34:31.252Z,99756.69
2024-02-23T21:36:59.484Z,99759.41
2024-02-23T21:39:26.888Z,99749.59
2024-02-23T21:41:53.394Z,99756.69
2024-02-23T21:44:20.015Z,99744.16
2024-02-23T21:46:46.444Z,99746.00
2024-02-23T21:49:13.027Z,99743.13
2024-02-23T21:51:39.494Z,99744.16
2024-02-23T21:54:06.045Z,99758.75
2024-02-23T21:56:32.472Z,99746.88
2024-02-23T21:58:59.634Z,99752.31
2024-02-23T22:01:26.154Z,99755.19
2024-02-23T22:03:54.110Z,99754.34
2024-02-23T22:06:23.903Z,99762.50
2024-02-23T22:08:50.495Z,99770.84
2024-02-23T22:11:17.222Z,99775.25
2024-02-23T22:13:43.991Z,99783.59
2024-02-23T22:16:10.454Z,99782.72
2024-02-23T22:18:36.905Z,99783.38
2024-02-23T22:21:04.194Z,99794.44
2024-02-23T22:23:30.669Z,99793.19
2024-02-23T22:25:57.161Z,99791.13
2024-02-23T22:28:23.603Z,99797.19
2024-02-23T22:30:50.369Z,99798.88
2024-02-23T22:33:17.053Z,99799.72
2024-02-23T22:35:43.689Z,99809.53
2024-02-23T22:38:10.204Z,99801.41
2024-02-23T22:40:37.126Z,99806.84
2024-02-23T22:43:03.698Z,99797.84
2024-02-23T22:45:30.135Z,99797.41
2024-02-23T22:47:56.713Z,99795.06
2024-02-23T22:50:23.271Z,99796.13
2024-02-23T22:52:49.749Z,99788.81
2024-02-23T22:55:16.217Z,99781.72
2024-02-23T22:57:42.695Z,99774.59
2024-02-23T23:00:10.651Z,99779.19
2024-02-23T23:02:37.354Z,99780.88
2024-02-23T23:05:04.050Z,99777.28
2024-02-23T23:07:32.499Z,99776.47
2024-02-23T23:09:59.009Z,99770.19
2024-02-23T23:12:25.569Z,99769.38
2024-02-23T23:14:51.996Z,99770.41
2024-02-23T23:17:20.479Z,99777.72
2024-02-23T23:19:47.019Z,99768.03
2024-02-23T23:22:13.471Z,99771.59
2024-02-23T23:24:39.901Z,99766.38
2024-02-23T23:27:06.321Z,99770.97
2024-02-23T23:29:32.848Z,99779.75
2024-02-23T23:31:59.312Z,99775.00
2024-02-23T23:34:26.024Z,99772.91
2024-02-23T23:36:53.035Z,99780.00
2024-02-23T23:39:20.341Z,99782.72
2024-02-23T23:41:48.507Z,99783.78
2024-02-23T23:44:15.184Z,99786.47
2024-02-23T23:46:43.168Z,99799.44
2024-02-23T23:49:09.617Z,99794.16
2024-02-23T23:51:45.703Z,99786.00
2024-02-23T23:54:18.918Z,99792.47
2024-02-23T23:56:45.393Z,99790.59
2024-02-23T23:59:11.867Z,99779.75
